SHT8J EGLL-EGPH
Flight info
| Callsign | SHT8J |
|---|---|
| Flight time | 0h 54m |
| Altitude | 32000 |
| Route | ULTIB1J ULTIB T420 TNT UN57 POL UN601 RIBEL DCT INPIP INPIP1E |
| Aircraft | A320/M-SDE3FGHIKRWXY/S |
Departure
| Time | 2026-05-07 19:02 |
|---|---|
| Airport | London Heathrow Airport (EGLL) |
Arrival
| Time | 2026-05-07 19:57 |
|---|---|
| Airport | Edinburgh Airport (EGPH) |
| Time | Latitude | Longitude | Altitude | Speed | Heading |
|---|---|---|---|---|---|
| 2026-05-07 18:55 | 51.47161 | -0.48480 | 87 ft | 0 kts | 183° |
| 2026-05-07 18:58 | 51.47159 | -0.48480 | 87 ft | 1 kts | 181° |
| 2026-05-07 18:58 | 51.47138 | -0.48476 | 88 ft | 5 kts | 173° |
| 2026-05-07 18:58 | 51.47058 | -0.48473 | 87 ft | 14 kts | 179° |
| 2026-05-07 18:58 | 51.46949 | -0.48472 | 88 ft | 17 kts | 179° |
| 2026-05-07 18:59 | 51.46831 | -0.48468 | 87 ft | 10 kts | 177° |
| 2026-05-07 18:59 | 51.46827 | -0.48467 | 87 ft | 0 kts | 177° |
| 2026-05-07 19:00 | 51.46795 | -0.48467 | 87 ft | 14 kts | 180° |
| 2026-05-07 19:00 | 51.46653 | -0.48467 | 87 ft | 21 kts | 180° |
| 2026-05-07 19:00 | 51.46520 | -0.48468 | 89 ft | 11 kts | 180° |
| 2026-05-07 19:01 | 51.46478 | -0.48408 | 89 ft | 7 kts | 89° |
| 2026-05-07 19:01 | 51.46478 | -0.48406 | 89 ft | 0 kts | 89° |
| 2026-05-07 19:01 | 51.46478 | -0.48234 | 89 ft | 50 kts | 90° |
| 2026-05-07 19:01 | 51.46482 | -0.47290 | 87 ft | 115 kts | 90° |
| 2026-05-07 19:02 | 51.46488 | -0.45739 | 206 ft | 150 kts | 91° |
| 2026-05-07 19:02 | 51.46520 | -0.44123 | 938 ft | 145 kts | 90° |
| 2026-05-07 19:02 | 51.46553 | -0.42443 | 1452 ft | 158 kts | 90° |
| 2026-05-07 19:02 | 51.46587 | -0.40563 | 1824 ft | 179 kts | 89° |
| 2026-05-07 19:03 | 51.47003 | -0.38560 | 2146 ft | 206 kts | 57° |
| 2026-05-07 19:03 | 51.47994 | -0.36707 | 2530 ft | 232 kts | 47° |
| 2026-05-07 19:03 | 51.49192 | -0.34790 | 3046 ft | 254 kts | 45° |
| 2026-05-07 19:03 | 51.50464 | -0.32738 | 3959 ft | 262 kts | 46° |
| 2026-05-07 19:04 | 51.51301 | -0.31336 | 4651 ft | 264 kts | 47° |
| 2026-05-07 19:04 | 51.52423 | -0.28977 | 5549 ft | 270 kts | 62° |
| 2026-05-07 19:04 | 51.53182 | -0.26209 | 5885 ft | 272 kts | 63° |
| 2026-05-07 19:04 | 51.54362 | -0.23859 | 6001 ft | 272 kts | 37° |
| 2026-05-07 19:05 | 51.56045 | -0.22555 | 6005 ft | 271 kts | 11° |
| 2026-05-07 19:05 | 51.57909 | -0.22581 | 6009 ft | 270 kts | 345° |
| 2026-05-07 19:05 | 51.59713 | -0.23446 | 6033 ft | 271 kts | 345° |
| 2026-05-07 19:05 | 51.61541 | -0.24186 | 6039 ft | 271 kts | 341° |
| 2026-05-07 19:06 | 51.63816 | -0.25920 | 7068 ft | 274 kts | 330° |
| 2026-05-07 19:06 | 51.66620 | -0.28489 | 8638 ft | 281 kts | 328° |
| 2026-05-07 19:06 | 51.68318 | -0.30104 | 9535 ft | 286 kts | 328° |
| 2026-05-07 19:07 | 51.70043 | -0.31765 | 10317 ft | 295 kts | 327° |
| 2026-05-07 19:07 | 51.71847 | -0.33513 | 10620 ft | 318 kts | 327° |
| 2026-05-07 19:07 | 51.73809 | -0.35415 | 11006 ft | 336 kts | 327° |
| 2026-05-07 19:07 | 51.75839 | -0.37380 | 11687 ft | 343 kts | 327° |
| 2026-05-07 19:08 | 51.77882 | -0.39358 | 12415 ft | 348 kts | 327° |
| 2026-05-07 19:08 | 51.79989 | -0.41397 | 13134 ft | 353 kts | 327° |
| 2026-05-07 19:08 | 51.82106 | -0.43445 | 13877 ft | 358 kts | 327° |
| 2026-05-07 19:08 | 51.84252 | -0.45520 | 14555 ft | 362 kts | 327° |
| 2026-05-07 19:09 | 51.86421 | -0.47621 | 15250 ft | 365 kts | 327° |
| 2026-05-07 19:09 | 51.88607 | -0.49745 | 15942 ft | 368 kts | 327° |
| 2026-05-07 19:09 | 51.90809 | -0.51886 | 16626 ft | 370 kts | 327° |
| 2026-05-07 19:09 | 51.93019 | -0.54042 | 17327 ft | 373 kts | 327° |
| 2026-05-07 19:10 | 51.95254 | -0.56224 | 18028 ft | 376 kts | 327° |
| 2026-05-07 19:10 | 51.97505 | -0.58424 | 18698 ft | 379 kts | 327° |
| 2026-05-07 19:10 | 51.99771 | -0.60643 | 19332 ft | 382 kts | 327° |
| 2026-05-07 19:10 | 52.02053 | -0.62881 | 19981 ft | 385 kts | 327° |
| 2026-05-07 19:11 | 52.04355 | -0.65136 | 20627 ft | 388 kts | 327° |
| 2026-05-07 19:11 | 52.06671 | -0.67409 | 21250 ft | 391 kts | 326° |
| 2026-05-07 19:11 | 52.08979 | -0.69681 | 21866 ft | 394 kts | 326° |
| 2026-05-07 19:11 | 52.11330 | -0.71999 | 22467 ft | 397 kts | 326° |
| 2026-05-07 19:12 | 52.13700 | -0.74337 | 23053 ft | 400 kts | 326° |
| 2026-05-07 19:12 | 52.16089 | -0.76688 | 23629 ft | 403 kts | 326° |
| 2026-05-07 19:12 | 52.18500 | -0.79062 | 24109 ft | 406 kts | 326° |
| 2026-05-07 19:12 | 52.20922 | -0.81451 | 24588 ft | 408 kts | 326° |
| 2026-05-07 19:13 | 52.23360 | -0.83860 | 25061 ft | 411 kts | 326° |
| 2026-05-07 19:13 | 52.25809 | -0.86287 | 25526 ft | 413 kts | 326° |
| 2026-05-07 19:13 | 52.28265 | -0.88727 | 25969 ft | 415 kts | 326° |
| 2026-05-07 19:13 | 52.30740 | -0.91191 | 26426 ft | 418 kts | 326° |
| 2026-05-07 19:14 | 52.33220 | -0.93661 | 26852 ft | 420 kts | 326° |
| 2026-05-07 19:14 | 52.35736 | -0.96169 | 27283 ft | 422 kts | 326° |
| 2026-05-07 19:14 | 52.38249 | -0.98677 | 27711 ft | 425 kts | 326° |
| 2026-05-07 19:14 | 52.40780 | -1.01203 | 28139 ft | 427 kts | 326° |
| 2026-05-07 19:15 | 52.43327 | -1.03756 | 28543 ft | 430 kts | 326° |
| 2026-05-07 19:15 | 52.45881 | -1.06323 | 28948 ft | 432 kts | 326° |
| 2026-05-07 19:15 | 52.48451 | -1.08906 | 29338 ft | 435 kts | 326° |
| 2026-05-07 19:15 | 52.51039 | -1.11513 | 29731 ft | 437 kts | 326° |
| 2026-05-07 19:16 | 52.53638 | -1.14131 | 30102 ft | 440 kts | 326° |
| 2026-05-07 19:16 | 52.56261 | -1.16768 | 30423 ft | 443 kts | 326° |
| 2026-05-07 19:16 | 52.58895 | -1.19419 | 30729 ft | 445 kts | 326° |
| 2026-05-07 19:16 | 52.61547 | -1.22094 | 31038 ft | 448 kts | 326° |
| 2026-05-07 19:17 | 52.64199 | -1.24774 | 31410 ft | 448 kts | 326° |
| 2026-05-07 19:17 | 52.66852 | -1.27464 | 31841 ft | 448 kts | 326° |
| 2026-05-07 19:17 | 52.69473 | -1.30125 | 31980 ft | 446 kts | 326° |
| 2026-05-07 19:17 | 52.72084 | -1.32773 | 32012 ft | 436 kts | 326° |
| 2026-05-07 19:18 | 52.77217 | -1.37999 | 32066 ft | 432 kts | 326° |
| 2026-05-07 19:18 | 52.82331 | -1.43226 | 32061 ft | 432 kts | 326° |
| 2026-05-07 19:19 | 52.87453 | -1.48472 | 32064 ft | 433 kts | 326° |
| 2026-05-07 19:19 | 52.92552 | -1.53709 | 32068 ft | 434 kts | 326° |
| 2026-05-07 19:20 | 52.97682 | -1.59001 | 32050 ft | 434 kts | 326° |
| 2026-05-07 19:20 | 53.02817 | -1.64309 | 32043 ft | 435 kts | 326° |
| 2026-05-07 19:21 | 53.08240 | -1.68773 | 32037 ft | 438 kts | 338° |
| 2026-05-07 19:21 | 53.13960 | -1.72295 | 32032 ft | 439 kts | 338° |
| 2026-05-07 19:22 | 53.19689 | -1.75835 | 32029 ft | 439 kts | 338° |
| 2026-05-07 19:22 | 53.25421 | -1.79400 | 32027 ft | 440 kts | 338° |
| 2026-05-07 19:23 | 53.31164 | -1.82990 | 32023 ft | 441 kts | 338° |
| 2026-05-07 19:23 | 53.36872 | -1.86573 | 32021 ft | 441 kts | 338° |
| 2026-05-07 19:24 | 53.42630 | -1.90181 | 32022 ft | 442 kts | 338° |
| 2026-05-07 19:24 | 53.48390 | -1.93807 | 32023 ft | 442 kts | 338° |
| 2026-05-07 19:25 | 53.54158 | -1.97457 | 32022 ft | 443 kts | 338° |
| 2026-05-07 19:25 | 53.59927 | -2.01118 | 32022 ft | 444 kts | 338° |
| 2026-05-07 19:26 | 53.65714 | -2.04785 | 32021 ft | 444 kts | 338° |
| 2026-05-07 19:26 | 53.71502 | -2.08479 | 32020 ft | 445 kts | 338° |
| 2026-05-07 19:27 | 53.77251 | -2.12194 | 32021 ft | 445 kts | 337° |
| 2026-05-07 19:27 | 53.83006 | -2.16121 | 32017 ft | 446 kts | 336° |
| 2026-05-07 19:28 | 53.88754 | -2.20118 | 32018 ft | 446 kts | 336° |
| 2026-05-07 19:28 | 53.94509 | -2.24086 | 32018 ft | 447 kts | 336° |
| 2026-05-07 19:29 | 54.00276 | -2.28042 | 32017 ft | 448 kts | 336° |
| 2026-05-07 19:29 | 54.06057 | -2.32012 | 32016 ft | 448 kts | 336° |
| 2026-05-07 19:30 | 54.11843 | -2.36016 | 32014 ft | 449 kts | 336° |
| 2026-05-07 19:30 | 54.17636 | -2.40037 | 31976 ft | 449 kts | 336° |
| 2026-05-07 19:31 | 54.20526 | -2.42045 | 31380 ft | 448 kts | 336° |
| 2026-05-07 19:31 | 54.23400 | -2.44046 | 31183 ft | 448 kts | 336° |
| 2026-05-07 19:31 | 54.26303 | -2.46075 | 30932 ft | 452 kts | 336° |
| 2026-05-07 19:31 | 54.29218 | -2.48113 | 30569 ft | 452 kts | 336° |
| 2026-05-07 19:32 | 54.32126 | -2.50145 | 30222 ft | 450 kts | 336° |
| 2026-05-07 19:32 | 54.34982 | -2.52141 | 29846 ft | 448 kts | 336° |
| 2026-05-07 19:32 | 54.37890 | -2.54178 | 29400 ft | 445 kts | 336° |
| 2026-05-07 19:32 | 54.40709 | -2.56160 | 28947 ft | 442 kts | 336° |
| 2026-05-07 19:33 | 54.43543 | -2.58157 | 28502 ft | 438 kts | 335° |
| 2026-05-07 19:33 | 54.46360 | -2.60148 | 28065 ft | 435 kts | 335° |
| 2026-05-07 19:33 | 54.49155 | -2.62124 | 27631 ft | 432 kts | 335° |
| 2026-05-07 19:33 | 54.51926 | -2.64085 | 27204 ft | 429 kts | 335° |
| 2026-05-07 19:34 | 54.54678 | -2.66031 | 26789 ft | 425 kts | 335° |
| 2026-05-07 19:34 | 54.57405 | -2.67961 | 26374 ft | 422 kts | 335° |
| 2026-05-07 19:34 | 54.60114 | -2.69885 | 25965 ft | 419 kts | 335° |
| 2026-05-07 19:34 | 54.62767 | -2.71777 | 25567 ft | 416 kts | 335° |
| 2026-05-07 19:35 | 54.65436 | -2.73681 | 25178 ft | 413 kts | 335° |
| 2026-05-07 19:35 | 54.68086 | -2.75571 | 24783 ft | 410 kts | 335° |
| 2026-05-07 19:35 | 54.70720 | -2.77448 | 24406 ft | 408 kts | 335° |
| 2026-05-07 19:35 | 54.73337 | -2.79315 | 24011 ft | 405 kts | 335° |
| 2026-05-07 19:36 | 54.75934 | -2.81170 | 23628 ft | 402 kts | 335° |
| 2026-05-07 19:36 | 54.78510 | -2.83018 | 23199 ft | 400 kts | 335° |
| 2026-05-07 19:36 | 54.81071 | -2.84859 | 22757 ft | 397 kts | 334° |
| 2026-05-07 19:36 | 54.83611 | -2.86686 | 22321 ft | 394 kts | 334° |
| 2026-05-07 19:37 | 54.86146 | -2.88515 | 21889 ft | 392 kts | 334° |
| 2026-05-07 19:37 | 54.88657 | -2.90323 | 21458 ft | 389 kts | 334° |
| 2026-05-07 19:37 | 54.91153 | -2.92122 | 21044 ft | 387 kts | 334° |
| 2026-05-07 19:37 | 54.93608 | -2.93896 | 20632 ft | 385 kts | 334° |
| 2026-05-07 19:38 | 54.96076 | -2.95684 | 20232 ft | 383 kts | 334° |
| 2026-05-07 19:38 | 54.98523 | -2.97461 | 19978 ft | 381 kts | 334° |
| 2026-05-07 19:38 | 55.00970 | -2.99237 | 19986 ft | 381 kts | 334° |
| 2026-05-07 19:38 | 55.03421 | -3.01016 | 19990 ft | 382 kts | 334° |
| 2026-05-07 19:39 | 55.05878 | -3.02801 | 19990 ft | 382 kts | 334° |
| 2026-05-07 19:39 | 55.08337 | -3.04593 | 19994 ft | 382 kts | 334° |
| 2026-05-07 19:39 | 55.10790 | -3.06386 | 19993 ft | 383 kts | 334° |
| 2026-05-07 19:39 | 55.13244 | -3.08181 | 19900 ft | 380 kts | 334° |
| 2026-05-07 19:40 | 55.15680 | -3.09958 | 19403 ft | 378 kts | 334° |
| 2026-05-07 19:40 | 55.18099 | -3.11725 | 18915 ft | 375 kts | 334° |
| 2026-05-07 19:40 | 55.20473 | -3.13466 | 18434 ft | 373 kts | 334° |
| 2026-05-07 19:40 | 55.22864 | -3.15221 | 17906 ft | 371 kts | 334° |
| 2026-05-07 19:41 | 55.25217 | -3.16949 | 17694 ft | 361 kts | 334° |
| 2026-05-07 19:41 | 55.27489 | -3.18618 | 17550 ft | 348 kts | 335° |
| 2026-05-07 19:41 | 55.29772 | -3.19815 | 17195 ft | 338 kts | 347° |
| 2026-05-07 19:41 | 55.32107 | -3.20100 | 16560 ft | 336 kts | 1° |
| 2026-05-07 19:42 | 55.34442 | -3.19740 | 15785 ft | 337 kts | 3° |
| 2026-05-07 19:42 | 55.36766 | -3.19357 | 15064 ft | 335 kts | 3° |
| 2026-05-07 19:42 | 55.39084 | -3.18983 | 14371 ft | 333 kts | 3° |
| 2026-05-07 19:42 | 55.41384 | -3.18620 | 13654 ft | 331 kts | 3° |
| 2026-05-07 19:43 | 55.43669 | -3.18264 | 12896 ft | 328 kts | 2° |
| 2026-05-07 19:43 | 55.45922 | -3.17914 | 12286 ft | 322 kts | 2° |
| 2026-05-07 19:43 | 55.48132 | -3.17567 | 11754 ft | 314 kts | 2° |
| 2026-05-07 19:43 | 55.50293 | -3.17225 | 11171 ft | 309 kts | 2° |
| 2026-05-07 19:44 | 55.52420 | -3.16891 | 10584 ft | 305 kts | 2° |
| 2026-05-07 19:44 | 55.54522 | -3.16562 | 9990 ft | 302 kts | 2° |
| 2026-05-07 19:44 | 55.56605 | -3.16236 | 9353 ft | 299 kts | 2° |
| 2026-05-07 19:44 | 55.58645 | -3.15918 | 8720 ft | 296 kts | 2° |
| 2026-05-07 19:45 | 55.60700 | -3.15592 | 8232 ft | 296 kts | 2° |
| 2026-05-07 19:45 | 55.62745 | -3.15266 | 7998 ft | 293 kts | 2° |
| 2026-05-07 19:45 | 55.64776 | -3.14947 | 7973 ft | 294 kts | 2° |
| 2026-05-07 19:45 | 55.66818 | -3.14627 | 7973 ft | 293 kts | 2° |
| 2026-05-07 19:46 | 55.68816 | -3.14304 | 7967 ft | 288 kts | 2° |
| 2026-05-07 19:46 | 55.70839 | -3.13964 | 7966 ft | 293 kts | 2° |
| 2026-05-07 19:46 | 55.72844 | -3.13597 | 7958 ft | 284 kts | 7° |
| 2026-05-07 19:46 | 55.74718 | -3.12785 | 7958 ft | 271 kts | 14° |
| 2026-05-07 19:47 | 55.76476 | -3.11866 | 7945 ft | 258 kts | 14° |
| 2026-05-07 19:47 | 55.78171 | -3.10951 | 7737 ft | 252 kts | 14° |
| 2026-05-07 19:47 | 55.79844 | -3.10047 | 7462 ft | 250 kts | 15° |
| 2026-05-07 19:47 | 55.81506 | -3.09156 | 7165 ft | 249 kts | 14° |
| 2026-05-07 19:48 | 55.83141 | -3.08283 | 6860 ft | 248 kts | 15° |
| 2026-05-07 19:48 | 55.84792 | -3.07407 | 6553 ft | 247 kts | 15° |
| 2026-05-07 19:48 | 55.86435 | -3.06547 | 6261 ft | 246 kts | 14° |
| 2026-05-07 19:48 | 55.88072 | -3.05687 | 5953 ft | 245 kts | 14° |
| 2026-05-07 19:49 | 55.89702 | -3.04827 | 5688 ft | 242 kts | 14° |
| 2026-05-07 19:49 | 55.91314 | -3.03982 | 5294 ft | 241 kts | 14° |
| 2026-05-07 19:49 | 55.92921 | -3.03133 | 4830 ft | 241 kts | 14° |
| 2026-05-07 19:49 | 55.94525 | -3.02278 | 4375 ft | 239 kts | 15° |
| 2026-05-07 19:50 | 55.96121 | -3.01428 | 3913 ft | 239 kts | 14° |
| 2026-05-07 19:50 | 55.97716 | -3.00564 | 3462 ft | 240 kts | 15° |
| 2026-05-07 19:50 | 55.99311 | -2.99697 | 3177 ft | 239 kts | 14° |
| 2026-05-07 19:50 | 56.00917 | -2.98943 | 3010 ft | 237 kts | 1° |
| 2026-05-07 19:51 | 56.02473 | -2.99426 | 3011 ft | 228 kts | 330° |
| 2026-05-07 19:51 | 56.03731 | -3.00974 | 3012 ft | 209 kts | 308° |
| 2026-05-07 19:51 | 56.04514 | -3.02989 | 3021 ft | 188 kts | 288° |
| 2026-05-07 19:51 | 56.04859 | -3.05169 | 3030 ft | 178 kts | 270° |
| 2026-05-07 19:52 | 56.04812 | -3.07320 | 3015 ft | 170 kts | 254° |
| 2026-05-07 19:52 | 56.04412 | -3.09273 | 3013 ft | 166 kts | 238° |
| 2026-05-07 19:52 | 56.03819 | -3.11042 | 3008 ft | 166 kts | 237° |
| 2026-05-07 19:52 | 56.03223 | -3.12824 | 2989 ft | 167 kts | 237° |
| 2026-05-07 19:53 | 56.02630 | -3.14596 | 2845 ft | 165 kts | 236° |
| 2026-05-07 19:53 | 56.02039 | -3.16356 | 2647 ft | 165 kts | 236° |
| 2026-05-07 19:53 | 56.01452 | -3.18105 | 2441 ft | 164 kts | 236° |
| 2026-05-07 19:53 | 56.00867 | -3.19846 | 2218 ft | 161 kts | 235° |
| 2026-05-07 19:54 | 56.00500 | -3.20943 | 2072 ft | 151 kts | 234° |
| 2026-05-07 19:54 | 55.99971 | -3.22515 | 1881 ft | 146 kts | 234° |
| 2026-05-07 19:54 | 55.99447 | -3.24068 | 1676 ft | 145 kts | 233° |
| 2026-05-07 19:54 | 55.98923 | -3.25623 | 1473 ft | 147 kts | 234° |
| 2026-05-07 19:55 | 55.98394 | -3.27191 | 1272 ft | 148 kts | 235° |
| 2026-05-07 19:55 | 55.97866 | -3.28759 | 1048 ft | 146 kts | 236° |
| 2026-05-07 19:55 | 55.97339 | -3.30320 | 840 ft | 144 kts | 235° |
| 2026-05-07 19:55 | 55.96849 | -3.31776 | 658 ft | 133 kts | 236° |
| 2026-05-07 19:56 | 55.96381 | -3.33159 | 486 ft | 128 kts | 237° |
| 2026-05-07 19:56 | 55.95922 | -3.34515 | 317 ft | 126 kts | 236° |
| 2026-05-07 19:56 | 55.95470 | -3.35864 | 144 ft | 126 kts | 236° |
| 2026-05-07 19:56 | 55.95063 | -3.37043 | 112 ft | 91 kts | 239° |
| 2026-05-07 19:57 | 55.94814 | -3.37788 | 114 ft | 35 kts | 239° |
| 2026-05-07 19:57 | 55.94720 | -3.38052 | 115 ft | 13 kts | 217° |
| 2026-05-07 19:57 | 55.94644 | -3.38002 | 114 ft | 13 kts | 150° |
| 2026-05-07 19:57 | 55.94587 | -3.37933 | 115 ft | 9 kts | 108° |
| 2026-05-07 19:58 | 55.94614 | -3.37821 | 113 ft | 11 kts | 57° |
| 2026-05-07 19:58 | 55.94661 | -3.37684 | 114 ft | 14 kts | 59° |
| 2026-05-07 19:58 | 55.94717 | -3.37514 | 115 ft | 17 kts | 59° |
| 2026-05-07 19:58 | 55.94786 | -3.37313 | 116 ft | 21 kts | 59° |
| 2026-05-07 19:59 | 55.94865 | -3.37076 | 115 ft | 24 kts | 59° |
| 2026-05-07 19:59 | 55.94924 | -3.36894 | 115 ft | 12 kts | 62° |
| 2026-05-07 19:59 | 55.94893 | -3.36775 | 116 ft | 10 kts | 107° |
| 2026-05-07 19:59 | 55.94911 | -3.36677 | 114 ft | 7 kts | 109° |
| 2026-05-07 20:00 | 55.94865 | -3.36618 | 113 ft | 5 kts | 146° |
| 2026-05-07 20:00 | 55.94851 | -3.36601 | 115 ft | 0 kts | 145° |